Terminal Aerodrome Forecast
Issued by NWS Greer, SC

Home | Current Version | Previous Version | Text Only | Print | Product List | Glossary On
Versions: 1 2 3 4 5 6 7 8 9 10 11 12 13 14 15 16 17 18 19 20 21 22 23 24 25 26 27 28 29 30 31 32 33 34 35 36 37 38 39 40 41 42
000
FTUS42 KGSP 262320
TAFAVL
TAF
KAVL 262320Z 2700/2724 19008KT P6SM SCT050 BKN250
     FM270200 27007KT P6SM -SHRA VCTS OVC060CB
     FM270500 32007KT P6SM -SHRA OVC023
     FM271000 34009KT P6SM OVC018
     FM271400 34010KT P6SM BKN008
     FM271600 34009KT P6SM BKN014=

USA.gov is the U.S. government's official web portal to all federal, state and local government web resources and services.